LIPX

Verona Villafranca Airport

Verona, Italy
TAF LIPX 261100Z 2612/2621 10005KT CAVOK
Issued Valid From Valid To
Apr-26 @ 11:00 UTC
(2 hours ago)
Apr-26 @ 12:00 UTC
(an hour ago)
Apr-26 @ 21:00 UTC
(in 8 hours)
Apr-26 @ 12:00 to Apr-26 @ 21:00
TAF LIPX 261100Z 2612/2621 10005KT CAVOK
Wind Visibility Clouds Conditions
100° at 5 knots 10,000+ meters
  • No significant clouds
TAF LIPX 261100Z 2612/2621 10005KT CAVOK
Issued Apr-26 @ 11:00 UTC
(2 hours ago)
Valid From Apr-26 @ 12:00 UTC
(an hour ago)
Valid To Apr-26 @ 21:00 UTC
(in 8 hours)
Apr-26 @ 12:00 - Apr-26 @ 21:00
Wind Visibility
100° at 5 knots 10,000+ meters
Clouds
  • No significant clouds
Conditions